createdAt,value
2019-04-01T00:02:42.356Z,6.66
2019-04-01T00:05:31.781Z,6.65
2019-04-01T00:08:21.571Z,6.63
2019-04-01T00:11:11.280Z,6.58
2019-04-01T00:14:01.345Z,6.52
2019-04-01T00:16:50.388Z,6.49
2019-04-01T00:19:39.492Z,6.47
2019-04-01T00:22:28.659Z,6.42
2019-04-01T00:25:18.084Z,6.37
2019-04-01T00:28:07.575Z,6.35
2019-04-01T00:30:57.159Z,6.30
2019-04-01T00:33:48.032Z,6.28
2019-04-01T00:36:37.607Z,6.25
2019-04-01T00:39:27.031Z,6.20
2019-04-01T00:42:28.063Z,6.18
2019-04-01T00:45:19.196Z,6.15
2019-04-01T00:48:08.806Z,6.11
2019-04-01T00:50:58.711Z,6.10
2019-04-01T00:53:48.606Z,6.07
2019-04-01T00:56:38.769Z,6.04
2019-04-01T00:59:30.688Z,6.02
2019-04-01T01:02:20.996Z,6.00
2019-04-01T01:05:10.544Z,5.97
2019-04-01T01:07:59.598Z,5.93
2019-04-01T01:10:49.709Z,5.88
2019-04-01T01:13:39.120Z,5.84
2019-04-01T01:16:28.090Z,5.81
2019-04-01T01:19:18.059Z,5.80
2019-04-01T01:22:07.381Z,5.77
2019-04-01T01:25:00.015Z,5.74
2019-04-01T01:27:49.318Z,5.70
2019-04-01T01:30:38.714Z,5.65
2019-04-01T01:33:28.601Z,5.65
2019-04-01T01:36:17.462Z,5.62
2019-04-01T01:39:07.098Z,5.58
2019-04-01T01:41:56.916Z,5.55
2019-04-01T01:44:46.034Z,5.53
2019-04-01T01:47:36.268Z,5.53
2019-04-01T01:50:25.270Z,5.50
2019-04-01T01:53:14.321Z,5.49
2019-04-01T01:56:04.245Z,5.44
2019-04-01T01:58:53.470Z,5.40
2019-04-01T02:01:43.128Z,5.39
2019-04-01T02:04:32.789Z,5.36
2019-04-01T02:07:21.865Z,5.32
2019-04-01T02:10:12.088Z,5.31
2019-04-01T02:13:01.668Z,5.29
2019-04-01T02:15:50.554Z,5.25
2019-04-01T02:18:40.006Z,5.24
2019-04-01T02:21:28.959Z,5.20
2019-04-01T02:24:18.613Z,5.18
2019-04-01T02:27:08.589Z,5.15
2019-04-01T02:29:57.934Z,5.12
2019-04-01T02:32:47.824Z,5.10
2019-04-01T02:35:37.090Z,5.09
2019-04-01T02:38:26.755Z,5.05
2019-04-01T02:41:15.927Z,5.05
2019-04-01T02:44:05.144Z,5.03
2019-04-01T02:46:54.055Z,5.00
2019-04-01T02:49:43.596Z,4.97
2019-04-01T02:52:33.566Z,4.93
2019-04-01T02:55:23.074Z,4.94
2019-04-01T02:58:12.321Z,4.90
2019-04-01T03:01:01.208Z,4.87
2019-04-01T03:03:51.191Z,4.87
2019-04-01T03:06:40.884Z,4.84
2019-04-01T03:09:29.863Z,4.82
2019-04-01T03:12:18.568Z,4.81
2019-04-01T03:15:08.266Z,4.77
2019-04-01T03:17:57.979Z,4.76
2019-04-01T03:20:47.091Z,4.72
2019-04-01T03:23:36.862Z,4.70
2019-04-01T03:26:25.738Z,4.66
2019-04-01T03:29:15.705Z,4.64
2019-04-01T03:32:05.802Z,4.63
2019-04-01T03:34:54.835Z,4.59
2019-04-01T03:37:44.102Z,4.58
2019-04-01T03:40:33.520Z,4.55
2019-04-01T03:43:22.880Z,4.51
2019-04-01T03:46:12.624Z,4.52
2019-04-01T03:49:02.380Z,4.51
2019-04-01T03:51:51.916Z,4.46
2019-04-01T03:54:41.374Z,4.44
2019-04-01T03:57:31.242Z,4.43
2019-04-01T04:00:20.412Z,4.40
2019-04-01T04:03:10.115Z,4.37
2019-04-01T04:06:00.927Z,4.35
2019-04-01T04:08:50.307Z,4.33
2019-04-01T04:11:39.645Z,4.29
2019-04-01T04:14:28.565Z,4.26
2019-04-01T04:17:18.666Z,4.28
2019-04-01T04:20:07.995Z,4.23
2019-04-01T04:22:57.102Z,4.24
2019-04-01T04:25:50.194Z,4.20
2019-04-01T04:28:39.733Z,4.16
2019-04-01T04:31:30.487Z,4.12
2019-04-01T04:34:20.201Z,4.10
2019-04-01T04:37:09.718Z,4.09
2019-04-01T04:39:59.414Z,4.07
2019-04-01T04:42:49.941Z,4.02
2019-04-01T04:45:39.025Z,4.03
2019-04-01T04:48:28.809Z,3.98
2019-04-01T04:51:18.302Z,3.98
2019-04-01T04:54:07.686Z,3.94
2019-04-01T04:56:57.021Z,3.92
2019-04-01T04:59:46.143Z,3.91
2019-04-01T05:02:36.273Z,3.88
2019-04-01T05:05:26.287Z,3.86
2019-04-01T05:08:16.043Z,3.83
2019-04-01T05:11:05.445Z,3.82
2019-04-01T05:13:54.296Z,3.79
2019-04-01T05:16:43.588Z,3.78
2019-04-01T05:19:33.108Z,3.78
2019-04-01T05:22:22.857Z,3.75
2019-04-01T05:25:12.700Z,3.73
2019-04-01T05:28:03.100Z,3.71
2019-04-01T05:30:54.371Z,3.70
2019-04-01T05:33:54.824Z,3.67
2019-04-01T05:36:35.040Z,3.66
2019-04-01T05:39:24.752Z,3.67
2019-04-01T05:42:14.552Z,3.67
2019-04-01T05:45:04.430Z,3.66
2019-04-01T05:47:54.598Z,3.65
2019-04-01T05:50:43.274Z,3.63
2019-04-01T05:53:32.958Z,3.61
2019-04-01T05:56:22.150Z,3.61
2019-04-01T05:59:30.857Z,3.62
2019-04-01T06:02:19.827Z,3.63
2019-04-01T06:05:09.369Z,3.63
2019-04-01T06:07:59.164Z,3.63
2019-04-01T06:10:49.296Z,3.66
2019-04-01T06:13:38.852Z,3.66
2019-04-01T06:16:28.111Z,3.69
2019-04-01T06:19:17.774Z,3.70
2019-04-01T06:22:07.680Z,3.72
2019-04-01T06:24:56.671Z,3.72
2019-04-01T06:27:45.958Z,3.73
2019-04-01T06:30:35.349Z,3.77
2019-04-01T06:33:24.554Z,3.81
2019-04-01T06:36:14.274Z,3.84
2019-04-01T06:39:06.477Z,3.88
2019-04-01T06:41:55.976Z,3.91
2019-04-01T06:44:45.658Z,3.95
2019-04-01T06:47:34.498Z,3.99
2019-04-01T06:50:24.930Z,4.04
2019-04-01T06:53:14.782Z,4.15
2019-04-01T06:56:03.687Z,4.12
2019-04-01T06:58:53.516Z,4.20
2019-04-01T07:01:43.100Z,4.27
2019-04-01T07:04:32.034Z,4.36
2019-04-01T07:07:21.347Z,4.42
2019-04-01T07:10:11.126Z,4.48
2019-04-01T07:13:00.568Z,4.57
2019-04-01T07:15:50.362Z,4.66
2019-04-01T07:18:39.929Z,4.76
2019-04-01T07:21:33.261Z,4.83
2019-04-01T07:24:22.891Z,4.92
2019-04-01T07:27:12.530Z,5.00
2019-04-01T07:30:02.308Z,5.08
2019-04-01T07:32:51.872Z,5.17
2019-04-01T07:35:41.099Z,5.27
2019-04-01T07:38:31.071Z,5.36
2019-04-01T07:41:20.959Z,5.48
2019-04-01T07:44:11.229Z,5.57
2019-04-01T07:47:20.158Z,5.65
2019-04-01T07:50:12.326Z,5.75
2019-04-01T07:53:01.376Z,5.86
2019-04-01T07:55:51.184Z,5.96
2019-04-01T07:58:40.059Z,6.08
2019-04-01T08:01:29.498Z,6.17
2019-04-01T08:04:18.406Z,6.30
2019-04-01T08:07:07.684Z,6.39
2019-04-01T08:09:57.300Z,6.51
2019-04-01T08:12:47.229Z,6.61
2019-04-01T08:15:37.172Z,6.71
2019-04-01T08:18:27.351Z,6.84
2019-04-01T08:21:18.652Z,6.94
2019-04-01T08:24:08.751Z,7.05
2019-04-01T08:26:57.738Z,7.16
2019-04-01T08:29:47.503Z,7.29
2019-04-01T08:32:37.480Z,7.43
2019-04-01T08:35:27.040Z,7.55
2019-04-01T08:38:16.422Z,7.67
2019-04-01T08:41:05.992Z,7.84
2019-04-01T08:43:55.665Z,7.99
2019-04-01T08:46:45.315Z,8.16
2019-04-01T08:49:34.217Z,8.30
2019-04-01T08:52:24.157Z,8.48
2019-04-01T08:55:13.747Z,8.66
2019-04-01T08:58:03.360Z,8.85
2019-04-01T09:00:53.507Z,9.03
2019-04-01T09:03:42.724Z,9.23
2019-04-01T09:06:32.672Z,9.43
2019-04-01T09:09:22.874Z,9.64
2019-04-01T09:12:12.587Z,9.84
2019-04-01T09:15:02.729Z,10.03
2019-04-01T09:17:51.961Z,10.23
2019-04-01T09:20:41.346Z,10.43
2019-04-01T09:23:30.531Z,10.61
2019-04-01T09:26:20.327Z,10.77
2019-04-01T09:29:09.917Z,10.96
2019-04-01T09:31:59.574Z,11.12
2019-04-01T09:34:49.302Z,11.28
2019-04-01T09:37:39.113Z,11.47
2019-04-01T09:40:29.031Z,11.64
2019-04-01T09:43:20.170Z,11.82
2019-04-01T09:46:09.449Z,11.99
2019-04-01T09:48:58.606Z,12.16
2019-04-01T09:51:49.200Z,12.34
2019-04-01T09:54:38.892Z,12.54
2019-04-01T09:57:28.139Z,12.74
2019-04-01T10:00:17.990Z,12.89
2019-04-01T10:03:08.490Z,13.04
2019-04-01T10:05:57.958Z,13.21
2019-04-01T10:08:46.759Z,13.35
2019-04-01T10:11:36.089Z,13.50
2019-04-01T10:14:25.934Z,13.64
2019-04-01T10:17:15.751Z,13.83
2019-04-01T10:20:06.525Z,14.00
2019-04-01T10:22:56.306Z,14.22
2019-04-01T10:25:46.035Z,14.36
2019-04-01T10:28:35.882Z,14.48
2019-04-01T10:31:25.321Z,14.69
2019-04-01T10:34:15.016Z,14.91
2019-04-01T10:37:04.663Z,15.04
2019-04-01T10:39:53.891Z,15.16
2019-04-01T10:42:43.671Z,15.32
2019-04-01T10:45:33.785Z,15.55
2019-04-01T10:48:23.949Z,15.75
2019-04-01T10:51:13.816Z,15.98
2019-04-01T10:54:03.394Z,16.10
2019-04-01T10:56:52.838Z,16.26
2019-04-01T10:59:42.131Z,16.46
2019-04-01T11:02:32.228Z,16.66
2019-04-01T11:05:21.158Z,16.83
2019-04-01T11:08:11.213Z,16.95
2019-04-01T11:11:00.414Z,17.08
2019-04-01T11:13:51.959Z,17.22
2019-04-01T11:16:41.182Z,17.43
2019-04-01T11:19:30.035Z,17.62
2019-04-01T11:22:20.058Z,17.73
2019-04-01T11:25:09.325Z,17.94
2019-04-01T11:27:58.557Z,18.14
2019-04-01T11:30:48.107Z,18.34
2019-04-01T11:33:37.758Z,18.54
2019-04-01T11:36:27.898Z,18.67
2019-04-01T11:39:17.882Z,18.83
2019-04-01T11:42:07.663Z,19.00
2019-04-01T11:44:56.941Z,18.92
2019-04-01T11:47:46.997Z,19.22
2019-04-01T11:50:36.839Z,19.39
2019-04-01T11:53:27.414Z,19.54
2019-04-01T11:56:17.324Z,19.72
2019-04-01T11:59:08.226Z,19.87
2019-04-01T12:01:58.478Z,20.03
2019-04-01T12:04:50.379Z,20.21
2019-04-01T12:07:40.196Z,20.36
2019-04-01T12:10:30.234Z,20.48
2019-04-01T12:13:19.431Z,20.60
2019-04-01T12:16:09.663Z,20.73
2019-04-01T12:18:58.550Z,20.85
2019-04-01T12:21:49.718Z,20.98
2019-04-01T12:24:40.289Z,21.12
2019-04-01T12:27:29.623Z,21.24
2019-04-01T12:30:19.464Z,21.13
2019-04-01T12:33:09.063Z,21.32
2019-04-01T12:35:59.504Z,21.53
2019-04-01T12:38:49.513Z,21.66
2019-04-01T12:41:38.986Z,21.76
2019-04-01T12:44:28.153Z,21.83
2019-04-01T12:47:17.254Z,21.93
2019-04-01T12:50:08.172Z,21.49
2019-04-01T12:52:57.652Z,21.82
2019-04-01T12:55:48.239Z,22.05
2019-04-01T12:58:38.325Z,22.20
2019-04-01T13:01:30.071Z,22.30
2019-04-01T13:04:19.649Z,22.43
2019-04-01T13:07:09.001Z,22.54
2019-04-01T13:09:58.279Z,22.64
2019-04-01T13:12:48.295Z,22.75
2019-04-01T13:15:38.303Z,22.77
2019-04-01T13:18:27.691Z,22.88
2019-04-01T13:21:17.831Z,21.24
2019-04-01T13:24:07.545Z,22.14
2019-04-01T13:26:57.523Z,22.53
2019-04-01T13:29:46.410Z,22.73
2019-04-01T13:32:36.429Z,22.85
2019-04-01T13:35:26.407Z,22.96
2019-04-01T13:38:15.959Z,23.05
2019-04-01T13:41:05.672Z,23.13
2019-04-01T13:43:55.674Z,23.23
2019-04-01T13:46:48.436Z,23.32
2019-04-01T13:49:38.408Z,23.38
2019-04-01T13:52:28.403Z,23.44
2019-04-01T13:55:19.424Z,23.46
2019-04-01T13:58:11.102Z,21.89
2019-04-01T14:01:01.490Z,22.37
2019-04-01T14:03:51.107Z,22.83
2019-04-01T14:06:40.728Z,23.06
2019-04-01T14:09:30.929Z,23.16
2019-04-01T14:12:20.831Z,23.23
2019-04-01T14:15:11.138Z,23.32
2019-04-01T14:18:00.789Z,23.37
2019-04-01T14:20:50.507Z,23.41
2019-04-01T14:23:39.642Z,23.46
2019-04-01T14:26:29.113Z,23.48
2019-04-01T14:29:18.062Z,23.52
2019-04-01T14:32:07.541Z,23.55
2019-04-01T14:34:56.706Z,23.56
2019-04-01T14:37:47.324Z,23.57
2019-04-01T14:40:39.829Z,23.56
2019-04-01T14:43:33.079Z,23.57
2019-04-01T14:46:22.754Z,23.57
2019-04-01T14:49:15.345Z,23.57
2019-04-01T14:52:07.955Z,23.56
2019-04-01T14:54:59.151Z,23.58
2019-04-01T14:57:51.568Z,23.58
2019-04-01T15:00:43.234Z,23.60
2019-04-01T15:03:34.328Z,23.61
2019-04-01T15:06:24.499Z,23.61
2019-04-01T15:09:15.016Z,23.63
2019-04-01T15:12:04.318Z,23.63
2019-04-01T15:14:54.508Z,23.62
2019-04-01T15:17:44.029Z,23.60
2019-04-01T15:20:33.751Z,23.58
2019-04-01T15:23:25.112Z,23.57
2019-04-01T15:26:15.989Z,23.55
2019-04-01T15:29:06.048Z,23.55
2019-04-01T15:31:55.954Z,23.56
2019-04-01T15:34:57.900Z,23.57
2019-04-01T15:37:48.296Z,23.57
2019-04-01T15:40:40.760Z,23.59
2019-04-01T15:43:31.028Z,23.61
2019-04-01T15:46:20.880Z,23.66
2019-04-01T15:49:11.440Z,23.69
2019-04-01T15:52:01.124Z,23.72
2019-04-01T15:54:50.464Z,23.76
2019-04-01T15:57:40.876Z,23.77
2019-04-01T16:00:31.994Z,23.80
2019-04-01T16:03:21.783Z,23.82
2019-04-01T16:06:10.825Z,23.80
2019-04-01T16:09:00.672Z,23.81
2019-04-01T16:11:53.845Z,23.81
2019-04-01T16:14:42.106Z,23.78
2019-04-01T16:17:31.543Z,23.75
2019-04-01T16:20:21.206Z,23.72
2019-04-01T16:23:10.343Z,23.67
2019-04-01T16:26:00.408Z,23.64
2019-04-01T16:28:49.391Z,23.55
2019-04-01T16:31:39.145Z,23.46
2019-04-01T16:34:28.402Z,23.21
2019-04-01T16:37:17.744Z,23.10
2019-04-01T16:40:07.790Z,22.89
2019-04-01T16:42:57.893Z,22.66
2019-04-01T16:45:47.890Z,22.44
2019-04-01T16:48:38.300Z,22.21
2019-04-01T16:51:27.768Z,21.97
2019-04-01T16:54:17.145Z,21.75
2019-04-01T16:57:06.872Z,21.52
2019-04-01T16:59:56.286Z,21.31
2019-04-01T17:02:46.917Z,21.08
2019-04-01T17:05:36.829Z,20.88
2019-04-01T17:08:29.547Z,20.67
2019-04-01T17:11:17.352Z,20.45
2019-04-01T17:14:09.201Z,20.27
2019-04-01T17:16:58.506Z,20.07
2019-04-01T17:19:48.237Z,18.41
2019-04-01T17:22:37.859Z,18.55
2019-04-01T17:25:26.874Z,18.76
2019-04-01T17:28:15.998Z,18.77
2019-04-01T17:31:05.853Z,18.71
2019-04-01T17:33:55.627Z,18.62
2019-04-01T17:36:45.610Z,18.50
2019-04-01T17:39:36.975Z,18.39
2019-04-01T17:42:26.275Z,18.28
2019-04-01T17:45:43.813Z,18.14
2019-04-01T17:48:33.276Z,18.02
2019-04-01T17:51:22.831Z,17.88
2019-04-01T17:54:12.421Z,17.73
2019-04-01T17:57:02.115Z,17.60
2019-04-01T17:59:51.017Z,17.49
2019-04-01T18:02:40.880Z,17.37
2019-04-01T18:05:30.328Z,16.81
2019-04-01T18:08:24.654Z,16.80
2019-04-01T18:11:16.187Z,16.78
2019-04-01T18:14:06.207Z,16.69
2019-04-01T18:16:55.674Z,16.57
2019-04-01T18:19:45.825Z,16.46
2019-04-01T18:22:35.710Z,16.35
2019-04-01T18:25:26.594Z,16.21
2019-04-01T18:28:20.146Z,16.11
2019-04-01T18:31:10.897Z,15.98
2019-04-01T18:34:03.518Z,15.85
2019-04-01T18:36:53.589Z,15.74
2019-04-01T18:39:48.444Z,15.62
2019-04-01T18:42:37.053Z,15.49
2019-04-01T18:45:26.576Z,15.37
2019-04-01T18:48:15.318Z,15.23
2019-04-01T18:51:06.025Z,15.10
2019-04-01T18:53:55.970Z,14.98
2019-04-01T18:56:47.580Z,14.87
2019-04-01T18:59:35.850Z,14.75
2019-04-01T19:02:25.892Z,14.63
2019-04-01T19:05:15.586Z,14.52
2019-04-01T19:08:04.983Z,14.41
2019-04-01T19:11:02.077Z,14.28
2019-04-01T19:13:45.917Z,14.18
2019-04-01T19:16:35.481Z,14.07
2019-04-01T19:19:24.552Z,13.95
2019-04-01T19:22:13.424Z,13.84
2019-04-01T19:25:02.481Z,13.75
2019-04-01T19:27:51.674Z,13.63
2019-04-01T19:30:43.337Z,13.54
2019-04-01T19:33:33.454Z,13.44
2019-04-01T19:36:23.227Z,13.34
2019-04-01T19:39:14.188Z,13.25
2019-04-01T19:42:03.091Z,13.15
2019-04-01T19:44:53.531Z,13.05
2019-04-01T19:47:44.967Z,12.96
2019-04-01T19:50:36.491Z,12.87
2019-04-01T19:53:26.657Z,12.78
2019-04-01T19:56:16.192Z,12.68
2019-04-01T19:59:05.758Z,12.59
2019-04-01T20:01:58.375Z,12.50
2019-04-01T20:04:48.682Z,12.43
2019-04-01T20:07:40.934Z,12.35
2019-04-01T20:10:29.971Z,12.25
2019-04-01T20:13:19.212Z,12.18
2019-04-01T20:16:10.194Z,12.09
2019-04-01T20:19:00.196Z,12.02
2019-04-01T20:21:50.264Z,11.95
2019-04-01T20:24:39.532Z,11.87
2019-04-01T20:27:31.978Z,11.81
2019-04-01T20:30:21.313Z,11.73
2019-04-01T20:33:17.730Z,11.67
2019-04-01T20:36:02.352Z,11.58
2019-04-01T20:38:52.697Z,11.53
2019-04-01T20:41:41.853Z,11.46
2019-04-01T20:44:31.177Z,11.39
2019-04-01T20:47:21.217Z,11.35
2019-04-01T20:50:10.767Z,11.29
2019-04-01T20:53:04.594Z,11.22
2019-04-01T20:55:53.840Z,11.14
2019-04-01T20:58:44.870Z,11.08
2019-04-01T21:01:35.335Z,11.02
2019-04-01T21:04:27.123Z,10.95
2019-04-01T21:07:36.694Z,10.87
2019-04-01T21:10:26.228Z,10.81
2019-04-01T21:13:18.361Z,10.73
2019-04-01T21:16:07.741Z,10.68
2019-04-01T21:18:56.603Z,10.60
2019-04-01T21:21:47.995Z,10.55
2019-04-01T21:24:37.844Z,10.49
2019-04-01T21:27:27.470Z,10.44
2019-04-01T21:30:19.141Z,10.38
2019-04-01T21:33:10.253Z,10.33
2019-04-01T21:35:59.214Z,10.27
2019-04-01T21:38:50.422Z,10.22
2019-04-01T21:41:41.500Z,10.17
2019-04-01T21:44:33.410Z,10.11
2019-04-01T21:47:23.084Z,10.04
2019-04-01T21:50:12.929Z,9.98
2019-04-01T21:53:04.079Z,9.95
2019-04-01T21:55:54.152Z,9.87
2019-04-01T21:58:43.617Z,9.83
2019-04-01T22:01:32.885Z,9.78
2019-04-01T22:04:22.081Z,9.73
2019-04-01T22:07:14.863Z,9.67
2019-04-01T22:10:04.126Z,9.59
2019-04-01T22:12:56.504Z,9.53
2019-04-01T22:15:50.177Z,9.49
2019-04-01T22:18:42.870Z,9.44
2019-04-01T22:21:34.603Z,9.41
2019-04-01T22:24:26.030Z,9.35
2019-04-01T22:27:17.161Z,9.29
2019-04-01T22:30:13.013Z,9.26
2019-04-01T22:33:03.598Z,9.20
2019-04-01T22:35:53.417Z,9.16
2019-04-01T22:38:47.599Z,9.11
2019-04-01T22:41:38.041Z,9.08
2019-04-01T22:44:29.133Z,9.01
2019-04-01T22:47:19.015Z,8.98
2019-04-01T22:50:10.258Z,8.93
2019-04-01T22:53:00.620Z,8.90
2019-04-01T22:55:50.599Z,8.85
2019-04-01T22:58:40.052Z,8.82
2019-04-01T23:01:29.830Z,8.77
2019-04-01T23:04:19.285Z,8.72
2019-04-01T23:07:08.819Z,8.66
2019-04-01T23:09:58.669Z,8.62
2019-04-01T23:12:48.399Z,8.59
2019-04-01T23:15:37.913Z,8.54
2019-04-01T23:18:28.260Z,8.51
2019-04-01T23:21:17.635Z,8.45
2019-04-01T23:24:07.123Z,8.42
2019-04-01T23:26:56.900Z,8.39
2019-04-01T23:29:46.242Z,8.34
2019-04-01T23:32:35.455Z,8.33
2019-04-01T23:35:24.243Z,8.27
2019-04-01T23:38:13.345Z,8.23
2019-04-01T23:41:02.232Z,8.19
2019-04-01T23:43:51.893Z,8.15
2019-04-01T23:46:40.675Z,8.11
2019-04-01T23:49:29.404Z,8.08
2019-04-01T23:52:18.535Z,8.06
2019-04-01T23:55:07.853Z,8.02
2019-04-01T23:57:56.763Z,7.99
